sensor_id;sensor_type;location;lat;lon;timestamp;pressure;altitude;pressure_sealevel;temperature;humidity
35202;BME280;20553;47.544;7.586;2022-07-29T12:52:30;98227.56;;;25.82;39.32
35202;BME280;20553;47.544;7.586;2022-07-29T12:57:46;98230.88;;;25.92;38.94
35202;BME280;20553;47.544;7.586;2022-07-29T13:02:56;98241.16;;;26.42;38.68
35202;BME280;20553;47.544;7.586;2022-07-29T13:08:13;98253.88;;;26.86;38.17
35202;BME280;20553;47.544;7.586;2022-07-29T13:13:24;98263.88;;;26.93;37.08
35202;BME280;20553;47.544;7.586;2022-07-29T13:18:30;98264.72;;;26.94;37.11
35202;BME280;20553;47.544;7.586;2022-07-29T13:23:36;98261.03;;;27.65;36.81
35202;BME280;20553;47.544;7.586;2022-07-29T13:28:42;98263.63;;;27.80;36.42
35202;BME280;20553;47.544;7.586;2022-07-29T13:33:46;98262.19;;;27.91;36.17
35202;BME280;20553;47.544;7.586;2022-07-29T13:38:52;98253.78;;;27.99;35.33
35202;BME280;20553;47.544;7.586;2022-07-29T13:43:56;98253.16;;;28.65;34.64
35202;BME280;20553;47.544;7.586;2022-07-29T13:49:01;98261.22;;;28.80;33.64
35202;BME280;20553;47.544;7.586;2022-07-29T13:54:07;98259.88;;;28.49;33.76
35202;BME280;20553;47.544;7.586;2022-07-29T13:59:12;98252.53;;;27.95;34.45
35202;BME280;20553;47.544;7.586;2022-07-29T14:04:16;98249.84;;;27.73;35.25
35202;BME280;20553;47.544;7.586;2022-07-29T14:09:24;98247.69;;;27.69;35.07
35202;BME280;20553;47.544;7.586;2022-07-29T14:14:28;98237.59;;;28.31;34.64
35202;BME280;20553;47.544;7.586;2022-07-29T14:19:35;98255.28;;;28.83;33.81
35202;BME280;20553;47.544;7.586;2022-07-29T14:24:42;98260.63;;;28.91;34.15
35202;BME280;20553;47.544;7.586;2022-07-29T14:29:46;98254.38;;;28.56;34.22
35202;BME280;20553;47.544;7.586;2022-07-29T14:34:51;98261.53;;;28.37;33.92
35202;BME280;20553;47.544;7.586;2022-07-29T14:39:57;98258.19;;;28.48;33.78
35202;BME280;20553;47.544;7.586;2022-07-29T14:45:08;98259.44;;;28.39;33.63
35202;BME280;20553;47.544;7.586;2022-07-29T14:50:13;98263.84;;;28.20;33.47
35202;BME280;20553;47.544;7.586;2022-07-29T14:55:26;98273.56;;;28.16;33.65
35202;BME280;20553;47.544;7.586;2022-07-29T15:00:31;98266.63;;;28.33;33.32
35202;BME280;20553;47.544;7.586;2022-07-29T15:05:36;98264.91;;;28.26;32.88
35202;BME280;20553;47.544;7.586;2022-07-29T15:10:42;98272.97;;;28.34;31.96
35202;BME280;20553;47.544;7.586;2022-07-29T15:15:46;98262.25;;;28.66;31.83
35202;BME280;20553;47.544;7.586;2022-07-29T15:20:50;98257.84;;;29.12;31.32
35202;BME280;20553;47.544;7.586;2022-07-29T15:25:57;98262.50;;;28.98;31.05
35202;BME280;20553;47.544;7.586;2022-07-29T15:31:02;98255.72;;;28.80;31.15
35202;BME280;20553;47.544;7.586;2022-07-29T15:36:06;98257.09;;;30.42;28.50
35202;BME280;20553;47.544;7.586;2022-07-29T15:41:15;98261.81;;;31.49;27.21
35202;BME280;20553;47.544;7.586;2022-07-29T15:46:19;98259.38;;;33.06;25.22
35202;BME280;20553;47.544;7.586;2022-07-29T15:51:42;98257.81;;;37.24;20.85
35202;BME280;20553;47.544;7.586;2022-07-29T15:56:47;98262.50;;;39.75;18.08
35202;BME280;20553;47.544;7.586;2022-07-29T16:01:53;98236.13;;;41.60;16.50
35202;BME280;20553;47.544;7.586;2022-07-29T16:06:58;98228.06;;;39.69;17.86
35202;BME280;20553;47.544;7.586;2022-07-29T16:12:05;98224.34;;;39.99;17.70
35202;BME280;20553;47.544;7.586;2022-07-29T16:17:18;98226.19;;;41.73;16.39
35202;BME280;20553;47.544;7.586;2022-07-29T16:22:23;98213.47;;;40.37;16.54
35202;BME280;20553;47.544;7.586;2022-07-29T16:27:29;98208.44;;;38.51;17.82
35202;BME280;20553;47.544;7.586;2022-07-29T16:32:40;98212.81;;;37.63;18.77
35202;BME280;20553;47.544;7.586;2022-07-29T16:37:44;98210.06;;;37.25;19.44
35202;BME280;20553;47.544;7.586;2022-07-29T16:42:50;98203.72;;;38.67;17.96
35202;BME280;20553;47.544;7.586;2022-07-29T16:47:55;98208.72;;;37.76;18.25
35202;BME280;20553;47.544;7.586;2022-07-29T16:53:03;98199.00;;;37.03;19.09
35202;BME280;20553;47.544;7.586;2022-07-29T16:58:09;98205.94;;;37.33;18.92
35202;BME280;20553;47.544;7.586;2022-07-29T17:03:14;98202.47;;;37.21;19.07
35202;BME280;20553;47.544;7.586;2022-07-29T17:08:19;98200.03;;;36.92;18.91
35202;BME280;20553;47.544;7.586;2022-07-29T17:13:24;98195.47;;;36.80;18.96
35202;BME280;20553;47.544;7.586;2022-07-29T17:18:29;98197.97;;;34.88;20.75
35202;BME280;20553;47.544;7.586;2022-07-29T17:23:33;98196.28;;;32.17;23.95
35202;BME280;20553;47.544;7.586;2022-07-29T17:28:39;98201.16;;;29.49;27.92
35202;BME280;20553;47.544;7.586;2022-07-29T17:33:44;98208.31;;;28.16;30.77
35202;BME280;20553;47.544;7.586;2022-07-29T17:38:49;98196.66;;;27.59;31.53
35202;BME280;20553;47.544;7.586;2022-07-29T17:43:56;98218.03;;;27.29;32.15
35202;BME280;20553;47.544;7.586;2022-07-29T17:49:00;98207.72;;;26.74;33.15
35202;BME280;20553;47.544;7.586;2022-07-29T17:54:04;98203.38;;;26.44;33.76
35202;BME280;20553;47.544;7.586;2022-07-29T17:59:10;98203.81;;;26.04;34.35
35202;BME280;20553;47.544;7.586;2022-07-29T18:04:16;98211.78;;;25.84;34.81
35202;BME280;20553;47.544;7.586;2022-07-29T18:09:22;98203.97;;;25.51;35.51
35202;BME280;20553;47.544;7.586;2022-07-29T18:14:28;98213.06;;;25.37;35.90
35202;BME280;20553;47.544;7.586;2022-07-29T18:19:32;98210.75;;;25.10;36.09
35202;BME280;20553;47.544;7.586;2022-07-29T18:24:37;98213.66;;;24.94;36.26
35202;BME280;20553;47.544;7.586;2022-07-29T18:29:42;98211.66;;;24.73;36.99
35202;BME280;20553;47.544;7.586;2022-07-29T18:34:53;98212.78;;;24.55;37.55
35202;BME280;20553;47.544;7.586;2022-07-29T18:39:57;98219.47;;;24.30;38.21
35202;BME280;20553;47.544;7.586;2022-07-29T18:45:04;98221.41;;;23.98;38.64
35202;BME280;20553;47.544;7.586;2022-07-29T18:50:21;98224.19;;;23.81;39.18
35202;BME280;20553;47.544;7.586;2022-07-29T18:55:31;98220.69;;;23.64;39.38
35202;BME280;20553;47.544;7.586;2022-07-29T19:00:37;98226.19;;;23.56;39.54
35202;BME280;20553;47.544;7.586;2022-07-29T19:05:43;98239.56;;;23.51;39.26
35202;BME280;20553;47.544;7.586;2022-07-29T19:10:47;98245.88;;;23.43;39.73
35202;BME280;20553;47.544;7.586;2022-07-29T19:15:53;98259.25;;;23.38;40.32
35202;BME280;20553;47.544;7.586;2022-07-29T19:20:57;98256.16;;;23.41;41.13
35202;BME280;20553;47.544;7.586;2022-07-29T19:26:02;98265.72;;;23.37;41.22
35202;BME280;20553;47.544;7.586;2022-07-29T19:31:11;98270.88;;;23.24;41.44
35202;BME280;20553;47.544;7.586;2022-07-29T19:36:16;98281.66;;;23.09;42.06
35202;BME280;20553;47.544;7.586;2022-07-29T19:41:20;98290.34;;;22.96;42.55
35202;BME280;20553;47.544;7.586;2022-07-29T19:46:26;98285.22;;;22.85;42.67
35202;BME280;20553;47.544;7.586;2022-07-29T19:51:31;98301.09;;;22.65;43.23
35202;BME280;20553;47.544;7.586;2022-07-29T19:56:36;98299.53;;;22.46;43.33
35202;BME280;20553;47.544;7.586;2022-07-29T20:01:45;98298.84;;;22.35;43.25
35202;BME280;20553;47.544;7.586;2022-07-29T20:06:50;98315.84;;;22.29;42.92
35202;BME280;20553;47.544;7.586;2022-07-29T20:11:58;98310.38;;;22.21;43.49
35202;BME280;20553;47.544;7.586;2022-07-29T20:17:05;98308.28;;;22.06;44.42
35202;BME280;20553;47.544;7.586;2022-07-29T20:22:13;98320.22;;;22.05;44.56
35202;BME280;20553;47.544;7.586;2022-07-29T20:27:23;98319.19;;;22.06;44.15
35202;BME280;20553;47.544;7.586;2022-07-29T20:32:29;98318.22;;;22.16;52.64
35202;BME280;20553;47.544;7.586;2022-07-29T20:37:33;98314.78;;;22.14;56.62
35202;BME280;20553;47.544;7.586;2022-07-29T20:42:58;98317.16;;;22.08;58.99
35202;BME280;20553;47.544;7.586;2022-07-29T20:48:04;98322.41;;;22.02;60.83
35202;BME280;20553;47.544;7.586;2022-07-29T20:53:10;98322.34;;;21.85;63.08
35202;BME280;20553;47.544;7.586;2022-07-29T20:58:15;98329.22;;;21.63;64.33
35202;BME280;20553;47.544;7.586;2022-07-29T21:03:23;98325.53;;;21.46;67.38
35202;BME280;20553;47.544;7.586;2022-07-29T21:08:28;98328.38;;;21.37;69.13
35202;BME280;20553;47.544;7.586;2022-07-29T21:13:35;98326.97;;;21.32;71.35
35202;BME280;20553;47.544;7.586;2022-07-29T21:18:44;98332.41;;;21.32;72.24
35202;BME280;20553;47.544;7.586;2022-07-29T21:23:48;98335.50;;;21.38;72.10
35202;BME280;20553;47.544;7.586;2022-07-29T21:28:54;98340.44;;;21.34;73.75
35202;BME280;20553;47.544;7.586;2022-07-29T21:34:00;98339.59;;;21.33;73.96
35202;BME280;20553;47.544;7.586;2022-07-29T21:39:04;98347.59;;;21.35;74.49
35202;BME280;20553;47.544;7.586;2022-07-29T21:44:09;98346.00;;;21.24;75.67
35202;BME280;20553;47.544;7.586;2022-07-29T21:49:15;98349.72;;;21.23;76.49
35202;BME280;20553;47.544;7.586;2022-07-29T21:54:20;98353.06;;;21.17;78.03
35202;BME280;20553;47.544;7.586;2022-07-29T21:59:26;98347.50;;;21.01;80.00
35202;BME280;20553;47.544;7.586;2022-07-29T22:04:32;98345.66;;;20.83;82.11
35202;BME280;20553;47.544;7.586;2022-07-29T22:09:38;98354.28;;;20.60;83.29
35202;BME280;20553;47.544;7.586;2022-07-29T22:14:42;98358.13;;;20.40;85.51
35202;BME280;20553;47.544;7.586;2022-07-29T22:19:49;98356.47;;;20.29;86.72
35202;BME280;20553;47.544;7.586;2022-07-29T22:24:53;98367.13;;;20.22;86.96
35202;BME280;20553;47.544;7.586;2022-07-29T22:29:58;98374.56;;;20.20;86.86
35202;BME280;20553;47.544;7.586;2022-07-29T22:35:04;98380.88;;;20.21;87.75
35202;BME280;20553;47.544;7.586;2022-07-29T22:40:09;98368.63;;;20.07;89.66
35202;BME280;20553;47.544;7.586;2022-07-29T22:45:14;98372.75;;;19.83;91.48
35202;BME280;20553;47.544;7.586;2022-07-29T22:50:20;98381.06;;;19.72;93.14
35202;BME280;20553;47.544;7.586;2022-07-29T22:55:24;98390.38;;;19.60;94.25
35202;BME280;20553;47.544;7.586;2022-07-29T23:00:29;98395.97;;;19.58;94.24
35202;BME280;20553;47.544;7.586;2022-07-29T23:05:35;98402.31;;;19.39;94.07
35202;BME280;20553;47.544;7.586;2022-07-29T23:10:39;98403.16;;;19.30;94.47
35202;BME280;20553;47.544;7.586;2022-07-29T23:15:44;98402.91;;;19.23;94.76
35202;BME280;20553;47.544;7.586;2022-07-29T23:20:50;98406.91;;;19.09;95.03
35202;BME280;20553;47.544;7.586;2022-07-29T23:25:54;98411.50;;;18.99;96.66
35202;BME280;20553;47.544;7.586;2022-07-29T23:30:58;98402.59;;;18.77;98.38
35202;BME280;20553;47.544;7.586;2022-07-29T23:36:05;98415.31;;;18.67;98.90
35202;BME280;20553;47.544;7.586;2022-07-29T23:41:09;98417.53;;;18.42;95.56
35202;BME280;20553;47.544;7.586;2022-07-29T23:46:14;98412.22;;;18.21;82.28
35202;BME280;20553;47.544;7.586;2022-07-29T23:51:27;98427.00;;;18.07;74.67
35202;BME280;20553;47.544;7.586;2022-07-29T23:56:32;98422.34;;;17.88;74.21
